Terminal Aerodrome Forecast
Issued by NWS

Home | Current Version | Previous Version | Text Only | Print | Product List | Glossary On
Versions: 1 2 3 4 5 6 7 8 9 10 11 12 13 14 15 16 17 18 19
000
FTUS43 KLSX 180302 AAA
TAFCPS
TAF AMD
KCPS 180302Z 1803/1824 17010KT P6SM SCT020 BKN060
     FM181300 20012KT 6SM -SHRA OVC035
     FM181700 24012G19KT 6SM -SHRA VCTS OVC030CB
     FM181900 31019G33KT 5SM -RA OVC015
     FM182200 31019G33KT P6SM BKN060=

USA.gov is the U.S. government's official web portal to all federal, state and local government web resources and services.